sensor_id;sensor_type;location;lat;lon;timestamp;pressure;altitude;pressure_sealevel;temperature;humidity
46714;BME280;32445;51.376;10.874;2022-08-21T00:02:33;99467.66;;;22.32;50.01
46714;BME280;32445;51.376;10.874;2022-08-21T00:05:38;99468.00;;;22.27;49.93
46714;BME280;32445;51.376;10.874;2022-08-21T00:08:39;99465.59;;;22.24;50.46
46714;BME280;32445;51.376;10.874;2022-08-21T00:11:39;99459.69;;;22.21;50.09
46714;BME280;32445;51.376;10.874;2022-08-21T00:14:40;99461.63;;;22.19;49.95
46714;BME280;32445;51.376;10.874;2022-08-21T00:17:40;99454.03;;;22.14;50.44
46714;BME280;32445;51.376;10.874;2022-08-21T00:20:42;99458.69;;;22.10;50.11
46714;BME280;32445;51.376;10.874;2022-08-21T00:23:43;99460.75;;;22.07;50.18
46714;BME280;32445;51.376;10.874;2022-08-21T00:26:43;99458.53;;;22.01;49.98
46714;BME280;32445;51.376;10.874;2022-08-21T00:29:44;99457.81;;;21.99;50.26
46714;BME280;32445;51.376;10.874;2022-08-21T00:32:44;99456.38;;;21.94;50.01
46714;BME280;32445;51.376;10.874;2022-08-21T00:35:45;99468.13;;;21.90;49.93
46714;BME280;32445;51.376;10.874;2022-08-21T00:38:45;99465.81;;;21.86;49.94
46714;BME280;32445;51.376;10.874;2022-08-21T00:41:46;99466.88;;;21.83;49.75
46714;BME280;32445;51.376;10.874;2022-08-21T00:44:48;99469.75;;;21.80;50.23
46714;BME280;32445;51.376;10.874;2022-08-21T00:47:51;99464.94;;;21.74;50.43
46714;BME280;32445;51.376;10.874;2022-08-21T00:51:00;99469.69;;;21.69;50.21
46714;BME280;32445;51.376;10.874;2022-08-21T00:54:03;99463.81;;;21.65;50.39
46714;BME280;32445;51.376;10.874;2022-08-21T00:57:07;99461.47;;;21.60;50.32
46714;BME280;32445;51.376;10.874;2022-08-21T01:00:14;99463.50;;;21.57;50.42
46714;BME280;32445;51.376;10.874;2022-08-21T01:03:22;99456.75;;;21.53;50.42
46714;BME280;32445;51.376;10.874;2022-08-21T01:06:23;99451.69;;;21.50;50.17
46714;BME280;32445;51.376;10.874;2022-08-21T01:09:23;99459.84;;;21.47;50.36
46714;BME280;32445;51.376;10.874;2022-08-21T01:12:23;99449.50;;;21.43;50.50
46714;BME280;32445;51.376;10.874;2022-08-21T01:15:27;99458.59;;;21.39;50.57
46714;BME280;32445;51.376;10.874;2022-08-21T01:18:29;99450.03;;;21.36;50.50
46714;BME280;32445;51.376;10.874;2022-08-21T01:21:29;99459.97;;;21.32;50.19
46714;BME280;32445;51.376;10.874;2022-08-21T01:24:30;99461.16;;;21.28;49.90
46714;BME280;32445;51.376;10.874;2022-08-21T01:27:31;99457.03;;;21.24;50.48
46714;BME280;32445;51.376;10.874;2022-08-21T01:30:34;99457.38;;;21.19;50.39
46714;BME280;32445;51.376;10.874;2022-08-21T01:33:36;99462.88;;;21.16;50.34
46714;BME280;32445;51.376;10.874;2022-08-21T01:36:37;99455.16;;;21.13;50.28
46714;BME280;32445;51.376;10.874;2022-08-21T01:39:38;99461.63;;;21.09;50.44
46714;BME280;32445;51.376;10.874;2022-08-21T01:42:39;99463.72;;;21.04;50.36
46714;BME280;32445;51.376;10.874;2022-08-21T01:45:39;99458.66;;;21.01;50.54
46714;BME280;32445;51.376;10.874;2022-08-21T01:48:40;99454.56;;;20.97;50.39
46714;BME280;32445;51.376;10.874;2022-08-21T01:51:40;99455.59;;;20.94;50.27
46714;BME280;32445;51.376;10.874;2022-08-21T01:54:41;99457.53;;;20.92;50.54
46714;BME280;32445;51.376;10.874;2022-08-21T01:57:42;99464.91;;;20.87;50.61
46714;BME280;32445;51.376;10.874;2022-08-21T02:00:42;99469.56;;;20.83;50.57
46714;BME280;32445;51.376;10.874;2022-08-21T02:03:43;99458.38;;;20.80;50.51
46714;BME280;32445;51.376;10.874;2022-08-21T02:06:44;99455.94;;;20.77;50.34
46714;BME280;32445;51.376;10.874;2022-08-21T02:09:44;99456.28;;;20.72;50.61
46714;BME280;32445;51.376;10.874;2022-08-21T02:12:45;99467.97;;;20.68;50.64
46714;BME280;32445;51.376;10.874;2022-08-21T02:15:46;99453.38;;;20.62;50.53
46714;BME280;32445;51.376;10.874;2022-08-21T02:18:46;99456.97;;;20.61;50.60
46714;BME280;32445;51.376;10.874;2022-08-21T02:21:47;99456.44;;;20.56;50.60
46714;BME280;32445;51.376;10.874;2022-08-21T02:24:47;99456.63;;;20.53;50.58
46714;BME280;32445;51.376;10.874;2022-08-21T02:27:48;99457.72;;;20.50;50.49
46714;BME280;32445;51.376;10.874;2022-08-21T02:30:49;99457.91;;;20.47;50.69
46714;BME280;32445;51.376;10.874;2022-08-21T02:33:50;99454.66;;;20.44;50.68
46714;BME280;32445;51.376;10.874;2022-08-21T02:36:51;99454.84;;;20.40;50.51
46714;BME280;32445;51.376;10.874;2022-08-21T02:39:51;99458.66;;;20.36;50.51
46714;BME280;32445;51.376;10.874;2022-08-21T02:42:52;99461.50;;;20.33;50.54
46714;BME280;32445;51.376;10.874;2022-08-21T02:45:54;99458.22;;;20.30;50.60
46714;BME280;32445;51.376;10.874;2022-08-21T02:48:55;99459.34;;;20.26;50.18
46714;BME280;32445;51.376;10.874;2022-08-21T02:51:56;99455.22;;;20.21;50.49
46714;BME280;32445;51.376;10.874;2022-08-21T02:54:56;99458.09;;;20.18;50.56
46714;BME280;32445;51.376;10.874;2022-08-21T02:57:58;99461.75;;;20.16;50.62
46714;BME280;32445;51.376;10.874;2022-08-21T03:00:58;99461.97;;;20.13;50.53
46714;BME280;32445;51.376;10.874;2022-08-21T03:03:59;99461.34;;;20.09;50.54
46714;BME280;32445;51.376;10.874;2022-08-21T03:06:59;99451.94;;;20.05;50.44
46714;BME280;32445;51.376;10.874;2022-08-21T03:10:00;99452.16;;;20.02;50.99
46714;BME280;32445;51.376;10.874;2022-08-21T03:13:01;99449.84;;;19.97;50.88
46714;BME280;32445;51.376;10.874;2022-08-21T03:16:03;99456.16;;;19.95;50.81
46714;BME280;32445;51.376;10.874;2022-08-21T03:19:04;99449.38;;;19.91;51.04
46714;BME280;32445;51.376;10.874;2022-08-21T03:22:04;99456.53;;;19.88;51.18
46714;BME280;32445;51.376;10.874;2022-08-21T03:25:06;99461.06;;;19.86;51.29
46714;BME280;32445;51.376;10.874;2022-08-21T03:28:12;99463.91;;;19.83;51.66
46714;BME280;32445;51.376;10.874;2022-08-21T03:31:12;99465.66;;;19.83;51.18
46714;BME280;32445;51.376;10.874;2022-08-21T03:34:13;99459.66;;;19.81;51.38
46714;BME280;32445;51.376;10.874;2022-08-21T03:37:14;99451.78;;;19.81;51.35
46714;BME280;32445;51.376;10.874;2022-08-21T03:40:17;99455.41;;;19.78;51.74
46714;BME280;32445;51.376;10.874;2022-08-21T03:43:17;99456.44;;;19.76;51.41
46714;BME280;32445;51.376;10.874;2022-08-21T03:46:18;99465.41;;;19.73;51.22
46714;BME280;32445;51.376;10.874;2022-08-21T03:49:18;99459.50;;;19.69;51.30
46714;BME280;32445;51.376;10.874;2022-08-21T03:52:19;99457.06;;;19.66;51.33
46714;BME280;32445;51.376;10.874;2022-08-21T03:55:19;99455.47;;;19.64;51.23
46714;BME280;32445;51.376;10.874;2022-08-21T03:58:23;99462.72;;;19.60;51.42
46714;BME280;32445;51.376;10.874;2022-08-21T04:01:25;99468.16;;;19.57;51.36
46714;BME280;32445;51.376;10.874;2022-08-21T04:04:28;99468.38;;;19.54;51.34
46714;BME280;32445;51.376;10.874;2022-08-21T04:07:29;99469.44;;;19.51;51.30
46714;BME280;32445;51.376;10.874;2022-08-21T04:10:32;99468.66;;;19.49;51.17
46714;BME280;32445;51.376;10.874;2022-08-21T04:13:33;99469.72;;;19.47;51.66
46714;BME280;32445;51.376;10.874;2022-08-21T04:16:34;99468.97;;;19.45;51.62
46714;BME280;32445;51.376;10.874;2022-08-21T04:19:34;99480.44;;;19.44;51.70
46714;BME280;32445;51.376;10.874;2022-08-21T04:22:35;99485.91;;;19.41;51.50
46714;BME280;32445;51.376;10.874;2022-08-21T04:25:35;99486.94;;;19.38;51.21
46714;BME280;32445;51.376;10.874;2022-08-21T04:28:35;99486.19;;;19.36;51.52
46714;BME280;32445;51.376;10.874;2022-08-21T04:31:36;99497.75;;;19.33;51.62
46714;BME280;32445;51.376;10.874;2022-08-21T04:34:37;99495.31;;;19.30;51.36
46714;BME280;32445;51.376;10.874;2022-08-21T04:37:37;99492.03;;;19.27;51.83
46714;BME280;32445;51.376;10.874;2022-08-21T04:40:37;99491.19;;;19.26;51.78
46714;BME280;32445;51.376;10.874;2022-08-21T04:43:38;99500.94;;;19.24;51.67
46714;BME280;32445;51.376;10.874;2022-08-21T04:46:38;99511.56;;;19.23;51.89
46714;BME280;32445;51.376;10.874;2022-08-21T04:49:39;99506.31;;;19.23;51.80
46714;BME280;32445;51.376;10.874;2022-08-21T04:52:39;99502.00;;;19.22;51.75
46714;BME280;32445;51.376;10.874;2022-08-21T04:55:41;99516.94;;;19.21;52.16
46714;BME280;32445;51.376;10.874;2022-08-21T04:58:42;99506.50;;;19.19;51.82
46714;BME280;32445;51.376;10.874;2022-08-21T05:01:43;99517.03;;;19.19;52.10
46714;BME280;32445;51.376;10.874;2022-08-21T05:04:45;99519.56;;;19.21;51.32
46714;BME280;32445;51.376;10.874;2022-08-21T05:07:48;99524.81;;;19.21;51.29
46714;BME280;32445;51.376;10.874;2022-08-21T05:10:49;99525.88;;;19.18;51.58
46714;BME280;32445;51.376;10.874;2022-08-21T05:13:49;99526.81;;;19.17;52.11
46714;BME280;32445;51.376;10.874;2022-08-21T05:16:50;99527.75;;;19.16;51.85
46714;BME280;32445;51.376;10.874;2022-08-21T05:19:50;99528.66;;;19.15;51.91
46714;BME280;32445;51.376;10.874;2022-08-21T05:22:50;99531.31;;;19.15;51.88
46714;BME280;32445;51.376;10.874;2022-08-21T05:25:52;99539.19;;;19.15;52.34
46714;BME280;32445;51.376;10.874;2022-08-21T05:28:53;99541.09;;;19.13;52.94
46714;BME280;32445;51.376;10.874;2022-08-21T05:31:53;99535.94;;;19.12;53.07
46714;BME280;32445;51.376;10.874;2022-08-21T05:34:54;99532.47;;;19.11;52.76
46714;BME280;32445;51.376;10.874;2022-08-21T05:37:55;99535.09;;;19.11;52.67
46714;BME280;32445;51.376;10.874;2022-08-21T05:40:55;99536.75;;;19.12;53.18
46714;BME280;32445;51.376;10.874;2022-08-21T05:43:56;99538.66;;;19.10;53.15
46714;BME280;32445;51.376;10.874;2022-08-21T05:47:03;99541.38;;;19.09;53.49
46714;BME280;32445;51.376;10.874;2022-08-21T05:50:04;99535.16;;;19.10;53.61
46714;BME280;32445;51.376;10.874;2022-08-21T05:53:06;99530.00;;;19.08;53.59
46714;BME280;32445;51.376;10.874;2022-08-21T05:56:06;99533.59;;;19.07;52.96
46714;BME280;32445;51.376;10.874;2022-08-21T05:59:06;99536.31;;;19.06;52.79
46714;BME280;32445;51.376;10.874;2022-08-21T06:02:07;99536.38;;;19.04;53.47
46714;BME280;32445;51.376;10.874;2022-08-21T06:05:08;99541.63;;;19.04;53.59
46714;BME280;32445;51.376;10.874;2022-08-21T06:08:08;99528.47;;;19.04;53.90
46714;BME280;32445;51.376;10.874;2022-08-21T06:11:09;99526.63;;;19.06;53.81
46714;BME280;32445;51.376;10.874;2022-08-21T06:14:13;99524.81;;;19.07;54.73
46714;BME280;32445;51.376;10.874;2022-08-21T06:17:14;99530.84;;;19.09;53.87
46714;BME280;32445;51.376;10.874;2022-08-21T06:20:15;99526.63;;;19.06;54.56
46714;BME280;32445;51.376;10.874;2022-08-21T06:23:16;99526.63;;;19.06;54.12
46714;BME280;32445;51.376;10.874;2022-08-21T06:26:16;99533.50;;;19.09;53.96
46714;BME280;32445;51.376;10.874;2022-08-21T06:29:17;99531.59;;;19.11;54.12
46714;BME280;32445;51.376;10.874;2022-08-21T06:32:17;99536.84;;;19.11;54.64
46714;BME280;32445;51.376;10.874;2022-08-21T06:35:18;99532.47;;;19.11;54.97
46714;BME280;32445;51.376;10.874;2022-08-21T06:38:18;99533.28;;;19.12;55.30
46714;BME280;32445;51.376;10.874;2022-08-21T06:41:19;99532.25;;;19.14;55.69
46714;BME280;32445;51.376;10.874;2022-08-21T06:44:20;99529.72;;;19.13;55.61
46714;BME280;32445;51.376;10.874;2022-08-21T06:47:20;99528.66;;;19.15;55.25
46714;BME280;32445;51.376;10.874;2022-08-21T06:50:20;99533.00;;;19.16;55.38
46714;BME280;32445;51.376;10.874;2022-08-21T06:53:21;99528.50;;;19.18;55.11
46714;BME280;32445;51.376;10.874;2022-08-21T06:56:21;99535.25;;;19.23;55.46
46714;BME280;32445;51.376;10.874;2022-08-21T06:59:22;99529.88;;;19.24;55.86
46714;BME280;32445;51.376;10.874;2022-08-21T07:02:22;99530.75;;;19.25;56.52
46714;BME280;32445;51.376;10.874;2022-08-21T07:05:26;99517.41;;;19.28;56.81
46714;BME280;32445;51.376;10.874;2022-08-21T07:08:27;99524.06;;;19.33;56.97
46714;BME280;32445;51.376;10.874;2022-08-21T07:11:28;99518.63;;;19.36;57.04
46714;BME280;32445;51.376;10.874;2022-08-21T07:14:28;99520.03;;;19.42;57.12
46714;BME280;32445;51.376;10.874;2022-08-21T07:17:28;99522.34;;;19.47;56.94
46714;BME280;32445;51.376;10.874;2022-08-21T07:20:30;99515.03;;;19.52;57.52
46714;BME280;32445;51.376;10.874;2022-08-21T07:23:39;99522.72;;;19.55;58.08
46714;BME280;32445;51.376;10.874;2022-08-21T07:26:41;99524.84;;;19.63;57.67
46714;BME280;32445;51.376;10.874;2022-08-21T07:29:41;99511.31;;;19.69;58.32
46714;BME280;32445;51.376;10.874;2022-08-21T07:32:41;99516.00;;;19.78;57.90
46714;BME280;32445;51.376;10.874;2022-08-21T07:35:42;99515.44;;;19.87;57.73
46714;BME280;32445;51.376;10.874;2022-08-21T07:38:42;99500.72;;;19.98;57.42
46714;BME280;32445;51.376;10.874;2022-08-21T07:41:43;99504.22;;;20.11;56.46
46714;BME280;32445;51.376;10.874;2022-08-21T07:44:43;99500.91;;;20.22;55.93
46714;BME280;32445;51.376;10.874;2022-08-21T07:47:43;99495.75;;;20.33;55.62
46714;BME280;32445;51.376;10.874;2022-08-21T07:50:44;99492.28;;;20.46;54.22
46714;BME280;32445;51.376;10.874;2022-08-21T07:53:52;99496.84;;;20.56;54.39
46714;BME280;32445;51.376;10.874;2022-08-21T07:56:53;99494.34;;;20.68;54.15
46714;BME280;32445;51.376;10.874;2022-08-21T07:59:54;99498.88;;;20.79;54.18
46714;BME280;32445;51.376;10.874;2022-08-21T08:02:54;99494.56;;;20.90;53.27
46714;BME280;32445;51.376;10.874;2022-08-21T08:05:56;99493.09;;;20.99;52.12
46714;BME280;32445;51.376;10.874;2022-08-21T08:08:56;99488.00;;;21.09;50.81
46714;BME280;32445;51.376;10.874;2022-08-21T08:11:57;99490.94;;;21.17;49.60
46714;BME280;32445;51.376;10.874;2022-08-21T08:14:58;99483.31;;;21.25;48.13
46714;BME280;32445;51.376;10.874;2022-08-21T08:17:59;99483.84;;;21.31;48.32
46714;BME280;32445;51.376;10.874;2022-08-21T08:21:00;99483.75;;;21.32;47.30
46714;BME280;32445;51.376;10.874;2022-08-21T08:24:07;99479.19;;;21.34;46.59
46714;BME280;32445;51.376;10.874;2022-08-21T08:27:07;99475.16;;;21.41;45.84
46714;BME280;32445;51.376;10.874;2022-08-21T08:30:16;99474.81;;;21.46;45.45
46714;BME280;32445;51.376;10.874;2022-08-21T08:33:17;99477.78;;;21.54;44.96
46714;BME280;32445;51.376;10.874;2022-08-21T08:36:18;99476.38;;;21.62;45.85
46714;BME280;32445;51.376;10.874;2022-08-21T08:39:19;99473.28;;;21.68;45.29
46714;BME280;32445;51.376;10.874;2022-08-21T08:42:29;99464.81;;;21.75;45.08
46714;BME280;32445;51.376;10.874;2022-08-21T08:45:31;99463.06;;;21.87;45.71
46714;BME280;32445;51.376;10.874;2022-08-21T08:48:54;99461.03;;;21.91;46.01
46714;BME280;32445;51.376;10.874;2022-08-21T08:52:03;99460.22;;;22.02;46.44
46714;BME280;32445;51.376;10.874;2022-08-21T08:55:30;99462.91;;;22.13;46.33
46714;BME280;32445;51.376;10.874;2022-08-21T08:58:37;99456.38;;;22.30;46.41
46714;BME280;32445;51.376;10.874;2022-08-21T09:01:39;99457.63;;;22.49;46.05
46714;BME280;32445;51.376;10.874;2022-08-21T09:04:41;99448.28;;;22.67;45.73
46714;BME280;32445;51.376;10.874;2022-08-21T09:11:03;99445.31;;;23.17;44.55
46714;BME280;32445;51.376;10.874;2022-08-21T09:20:46;99431.31;;;24.02;42.93
46714;BME280;32445;51.376;10.874;2022-08-21T09:27:02;99433.47;;;24.51;42.12
46714;BME280;32445;51.376;10.874;2022-08-21T09:30:06;99421.47;;;24.78;41.51
46714;BME280;32445;51.376;10.874;2022-08-21T09:33:07;99426.88;;;25.07;40.06
46714;BME280;32445;51.376;10.874;2022-08-21T09:36:10;99420.22;;;25.22;39.93
46714;BME280;32445;51.376;10.874;2022-08-21T09:39:13;99418.75;;;25.39;39.38
46714;BME280;32445;51.376;10.874;2022-08-21T09:42:25;99422.41;;;25.58;39.49
46714;BME280;32445;51.376;10.874;2022-08-21T09:45:26;99413.19;;;25.72;38.49
46714;BME280;32445;51.376;10.874;2022-08-21T09:48:27;99417.06;;;25.87;38.16
46714;BME280;32445;51.376;10.874;2022-08-21T09:51:31;99424.06;;;25.98;37.32
46714;BME280;32445;51.376;10.874;2022-08-21T09:54:36;99418.22;;;26.04;36.99
46714;BME280;32445;51.376;10.874;2022-08-21T09:57:38;99423.09;;;26.09;37.12
46714;BME280;32445;51.376;10.874;2022-08-21T10:00:39;99416.94;;;26.18;36.78
46714;BME280;32445;51.376;10.874;2022-08-21T10:03:39;99420.72;;;26.25;36.98
46714;BME280;32445;51.376;10.874;2022-08-21T10:06:40;99418.47;;;26.31;37.13
46714;BME280;32445;51.376;10.874;2022-08-21T10:09:44;99415.66;;;26.32;36.47
46714;BME280;32445;51.376;10.874;2022-08-21T10:26:27;99406.75;;;26.61;35.98
46714;BME280;32445;51.376;10.874;2022-08-21T10:29:55;99413.72;;;26.72;36.46
46714;BME280;32445;51.376;10.874;2022-08-21T10:36:25;99410.16;;;26.91;36.14
46714;BME280;32445;51.376;10.874;2022-08-21T10:39:33;99399.72;;;26.98;35.19
46714;BME280;32445;51.376;10.874;2022-08-21T10:42:41;99406.13;;;27.05;35.46
46714;BME280;32445;51.376;10.874;2022-08-21T10:49:02;99399.56;;;27.27;36.11
46714;BME280;32445;51.376;10.874;2022-08-21T10:55:22;99406.00;;;27.52;34.87
46714;BME280;32445;51.376;10.874;2022-08-21T10:58:29;99398.41;;;27.57;34.83
46714;BME280;32445;51.376;10.874;2022-08-21T11:04:39;99399.63;;;27.63;34.19
46714;BME280;32445;51.376;10.874;2022-08-21T11:08:01;99389.34;;;27.68;34.65
46714;BME280;32445;51.376;10.874;2022-08-21T11:11:25;99395.44;;;27.78;35.36
46714;BME280;32445;51.376;10.874;2022-08-21T11:14:41;99391.31;;;27.84;34.77
46714;BME280;32445;51.376;10.874;2022-08-21T11:18:00;99384.22;;;27.93;35.05
46714;BME280;32445;51.376;10.874;2022-08-21T11:28:00;99386.19;;;27.91;34.10
46714;BME280;32445;51.376;10.874;2022-08-21T11:31:13;99386.72;;;27.94;33.84
46714;BME280;32445;51.376;10.874;2022-08-21T11:34:21;99385.97;;;28.02;34.47
46714;BME280;32445;51.376;10.874;2022-08-21T11:44:10;99387.44;;;28.23;33.30
46714;BME280;32445;51.376;10.874;2022-08-21T11:50:35;99377.69;;;28.40;33.39
46714;BME280;32445;51.376;10.874;2022-08-21T11:54:02;99377.78;;;28.56;33.36
46714;BME280;32445;51.376;10.874;2022-08-21T11:57:12;99372.63;;;28.89;33.01
46714;BME280;32445;51.376;10.874;2022-08-21T12:00:23;99367.53;;;29.21;32.33
46714;BME280;32445;51.376;10.874;2022-08-21T12:03:33;99365.91;;;29.44;31.80
46714;BME280;32445;51.376;10.874;2022-08-21T12:06:40;99361.94;;;29.73;31.43
46714;BME280;32445;51.376;10.874;2022-08-21T12:09:52;99360.44;;;29.95;31.63
46714;BME280;32445;51.376;10.874;2022-08-21T12:13:06;99366.59;;;30.20;31.05
46714;BME280;32445;51.376;10.874;2022-08-21T12:16:28;99369.72;;;30.41;30.61
46714;BME280;32445;51.376;10.874;2022-08-21T12:19:30;99365.31;;;30.56;30.76
46714;BME280;32445;51.376;10.874;2022-08-21T12:22:39;99360.13;;;30.63;30.29
46714;BME280;32445;51.376;10.874;2022-08-21T12:25:59;99361.63;;;30.65;29.61
46714;BME280;32445;51.376;10.874;2022-08-21T12:29:28;99360.63;;;30.66;30.59
46714;BME280;32445;51.376;10.874;2022-08-21T12:35:40;99355.03;;;30.76;28.69
46714;BME280;32445;51.376;10.874;2022-08-21T12:42:22;99349.41;;;31.02;29.47
46714;BME280;32445;51.376;10.874;2022-08-21T12:45:36;99341.63;;;31.39;28.37
46714;BME280;32445;51.376;10.874;2022-08-21T12:48:56;99339.25;;;31.67;28.71
46714;BME280;32445;51.376;10.874;2022-08-21T12:52:16;99340.31;;;31.96;27.77
46714;BME280;32445;51.376;10.874;2022-08-21T12:55:32;99331.22;;;31.82;27.25
46714;BME280;32445;51.376;10.874;2022-08-21T12:58:53;99326.34;;;32.01;28.23
46714;BME280;32445;51.376;10.874;2022-08-21T13:01:55;99320.75;;;32.25;28.02
46714;BME280;32445;51.376;10.874;2022-08-21T13:04:57;99323.59;;;32.39;27.12
46714;BME280;32445;51.376;10.874;2022-08-21T13:07:59;99318.69;;;32.42;26.46
46714;BME280;32445;51.376;10.874;2022-08-21T13:11:05;99313.50;;;32.56;27.67
46714;BME280;32445;51.376;10.874;2022-08-21T13:14:06;99318.88;;;32.71;24.91
46714;BME280;32445;51.376;10.874;2022-08-21T13:17:11;99310.81;;;32.71;25.59
46714;BME280;32445;51.376;10.874;2022-08-21T13:20:29;99316.44;;;32.76;25.66
46714;BME280;32445;51.376;10.874;2022-08-21T13:23:30;99313.91;;;32.89;26.03
46714;BME280;32445;51.376;10.874;2022-08-21T13:26:30;99306.63;;;33.05;25.89
46714;BME280;32445;51.376;10.874;2022-08-21T13:29:32;99309.59;;;33.10;24.56
46714;BME280;32445;51.376;10.874;2022-08-21T13:32:39;99305.31;;;33.16;25.10
46714;BME280;32445;51.376;10.874;2022-08-21T13:36:07;99308.34;;;33.27;24.66
46714;BME280;32445;51.376;10.874;2022-08-21T13:39:16;99299.78;;;33.45;25.47
46714;BME280;32445;51.376;10.874;2022-08-21T13:42:17;99306.19;;;33.66;23.69
46714;BME280;32445;51.376;10.874;2022-08-21T13:45:27;99302.81;;;33.57;23.75
46714;BME280;32445;51.376;10.874;2022-08-21T13:48:30;99305.03;;;33.75;24.53
46714;BME280;32445;51.376;10.874;2022-08-21T13:51:32;99303.94;;;33.98;23.90
46714;BME280;32445;51.376;10.874;2022-08-21T13:54:37;99312.97;;;34.19;23.27
46714;BME280;32445;51.376;10.874;2022-08-21T13:57:38;99307.69;;;34.32;23.02
46714;BME280;32445;51.376;10.874;2022-08-21T14:00:49;99298.81;;;34.38;23.45
46714;BME280;32445;51.376;10.874;2022-08-21T14:03:53;99305.88;;;34.46;22.73
46714;BME280;32445;51.376;10.874;2022-08-21T14:06:54;99301.09;;;34.41;23.10
46714;BME280;32445;51.376;10.874;2022-08-21T14:09:55;99297.41;;;34.56;24.14
46714;BME280;32445;51.376;10.874;2022-08-21T14:12:59;99299.78;;;34.79;22.79
46714;BME280;32445;51.376;10.874;2022-08-21T14:16:03;99299.66;;;34.94;22.30
46714;BME280;32445;51.376;10.874;2022-08-21T14:19:18;99288.06;;;35.07;22.47
46714;BME280;32445;51.376;10.874;2022-08-21T14:25:39;99291.78;;;35.12;22.14
46714;BME280;32445;51.376;10.874;2022-08-21T14:28:40;99287.44;;;35.18;21.85
46714;BME280;32445;51.376;10.874;2022-08-21T14:31:42;99289.09;;;35.19;21.98
46714;BME280;32445;51.376;10.874;2022-08-21T14:34:43;99282.47;;;35.15;21.21
46714;BME280;32445;51.376;10.874;2022-08-21T14:37:44;99272.91;;;35.06;21.34
46714;BME280;32445;51.376;10.874;2022-08-21T14:40:57;99264.63;;;35.00;21.49
46714;BME280;32445;51.376;10.874;2022-08-21T14:43:57;99269.16;;;34.93;20.70
46714;BME280;32445;51.376;10.874;2022-08-21T14:46:59;99274.53;;;34.87;22.00
46714;BME280;32445;51.376;10.874;2022-08-21T14:49:59;99274.56;;;34.93;21.84
46714;BME280;32445;51.376;10.874;2022-08-21T14:53:00;99273.53;;;35.01;20.38
46714;BME280;32445;51.376;10.874;2022-08-21T14:56:01;99271.66;;;34.95;20.75
46714;BME280;32445;51.376;10.874;2022-08-21T14:59:08;99272.88;;;34.99;20.14
46714;BME280;32445;51.376;10.874;2022-08-21T15:02:12;99276.44;;;34.99;20.09
46714;BME280;32445;51.376;10.874;2022-08-21T15:05:12;99267.50;;;35.06;20.46
46714;BME280;32445;51.376;10.874;2022-08-21T15:08:13;99276.63;;;35.05;19.61
46714;BME280;32445;51.376;10.874;2022-08-21T15:11:18;99266.66;;;34.98;20.03
46714;BME280;32445;51.376;10.874;2022-08-21T15:14:25;99277.03;;;34.95;19.32
46714;BME280;32445;51.376;10.874;2022-08-21T15:17:26;99271.41;;;34.83;19.74
46714;BME280;32445;51.376;10.874;2022-08-21T15:20:27;99266.84;;;34.90;20.14
46714;BME280;32445;51.376;10.874;2022-08-21T15:23:27;99262.72;;;35.01;20.55
46714;BME280;32445;51.376;10.874;2022-08-21T15:26:27;99264.63;;;35.00;20.84
46714;BME280;32445;51.376;10.874;2022-08-21T15:29:29;99267.72;;;35.04;20.43
46714;BME280;32445;51.376;10.874;2022-08-21T15:32:29;99263.56;;;35.08;19.35
46714;BME280;32445;51.376;10.874;2022-08-21T15:35:30;99268.75;;;34.96;19.89
46714;BME280;32445;51.376;10.874;2022-08-21T15:38:31;99268.09;;;34.94;19.26
46714;BME280;32445;51.376;10.874;2022-08-21T15:41:31;99254.63;;;34.88;19.28
46714;BME280;32445;51.376;10.874;2022-08-21T15:44:32;99267.06;;;34.89;19.94
46714;BME280;32445;51.376;10.874;2022-08-21T15:47:35;99273.28;;;34.82;18.54
46714;BME280;32445;51.376;10.874;2022-08-21T15:50:36;99262.06;;;34.79;19.13
46714;BME280;32445;51.376;10.874;2022-08-21T15:53:36;99273.00;;;34.71;18.94
46714;BME280;32445;51.376;10.874;2022-08-21T15:56:40;99274.63;;;34.58;18.76
46714;BME280;32445;51.376;10.874;2022-08-21T15:59:56;99270.84;;;34.46;18.97
46714;BME280;32445;51.376;10.874;2022-08-21T16:02:59;99270.25;;;34.57;19.71
46714;BME280;32445;51.376;10.874;2022-08-21T16:05:59;99270.06;;;34.52;19.71
46714;BME280;32445;51.376;10.874;2022-08-21T16:09:00;99267.72;;;34.42;18.98
46714;BME280;32445;51.376;10.874;2022-08-21T16:12:00;99261.50;;;34.35;18.63
46714;BME280;32445;51.376;10.874;2022-08-21T16:15:04;99263.50;;;34.26;18.89
46714;BME280;32445;51.376;10.874;2022-08-21T16:18:06;99265.94;;;34.21;18.92
46714;BME280;32445;51.376;10.874;2022-08-21T16:21:07;99257.00;;;34.14;18.43
46714;BME280;32445;51.376;10.874;2022-08-21T16:24:08;99255.53;;;34.11;18.88
46714;BME280;32445;51.376;10.874;2022-08-21T16:27:08;99263.63;;;34.11;18.97
46714;BME280;32445;51.376;10.874;2022-08-21T16:30:09;99263.00;;;34.09;19.20
46714;BME280;32445;51.376;10.874;2022-08-21T16:33:20;99259.44;;;34.02;19.76
46714;BME280;32445;51.376;10.874;2022-08-21T16:36:21;99258.00;;;34.06;19.38
46714;BME280;32445;51.376;10.874;2022-08-21T16:39:22;99260.84;;;33.98;19.91
46714;BME280;32445;51.376;10.874;2022-08-21T16:42:24;99250.91;;;33.92;20.08
46714;BME280;32445;51.376;10.874;2022-08-21T16:45:25;99262.63;;;33.84;19.47
46714;BME280;32445;51.376;10.874;2022-08-21T16:48:27;99253.28;;;33.80;19.45
46714;BME280;32445;51.376;10.874;2022-08-21T16:51:28;99248.78;;;33.59;19.12
46714;BME280;32445;51.376;10.874;2022-08-21T16:54:31;99246.38;;;33.42;19.49
46714;BME280;32445;51.376;10.874;2022-08-21T16:57:31;99249.41;;;33.33;19.77
46714;BME280;32445;51.376;10.874;2022-08-21T17:00:35;99250.63;;;33.30;19.94
46714;BME280;32445;51.376;10.874;2022-08-21T17:03:38;99256.31;;;33.20;19.91
46714;BME280;32445;51.376;10.874;2022-08-21T17:06:41;99257.41;;;33.04;20.07